sensor_id;sensor_type;location;lat;lon;timestamp;P1;durP1;ratioP1;P2;durP2;ratioP2
5157;SDS011;2598;52.364;9.772;2023-10-08T00:01:34;2.80;;;0.60;;
5157;SDS011;2598;52.364;9.772;2023-10-08T00:04:05;15.53;;;2.03;;
5157;SDS011;2598;52.364;9.772;2023-10-08T00:06:32;2.80;;;0.60;;
5157;SDS011;2598;52.364;9.772;2023-10-08T00:08:58;2.87;;;0.60;;
5157;SDS011;2598;52.364;9.772;2023-10-08T00:11:34;5.20;;;0.60;;
5157;SDS011;2598;52.364;9.772;2023-10-08T00:14:01;2.77;;;0.50;;
5157;SDS011;2598;52.364;9.772;2023-10-08T00:16:29;2.80;;;0.50;;
5157;SDS011;2598;52.364;9.772;2023-10-08T00:18:58;2.80;;;0.50;;
5157;SDS011;2598;52.364;9.772;2023-10-08T00:21:32;2.90;;;0.60;;
5157;SDS011;2598;52.364;9.772;2023-10-08T00:24:00;2.90;;;0.60;;
5157;SDS011;2598;52.364;9.772;2023-10-08T00:26:30;2.70;;;0.50;;
5157;SDS011;2598;52.364;9.772;2023-10-08T00:28:57;2.80;;;0.53;;
5157;SDS011;2598;52.364;9.772;2023-10-08T00:31:24;2.80;;;0.60;;
5157;SDS011;2598;52.364;9.772;2023-10-08T00:33:55;2.80;;;0.50;;
5157;SDS011;2598;52.364;9.772;2023-10-08T00:36:21;2.77;;;0.50;;
5157;SDS011;2598;52.364;9.772;2023-10-08T00:38:49;2.80;;;0.60;;
5157;SDS011;2598;52.364;9.772;2023-10-08T00:41:16;2.70;;;0.50;;
5157;SDS011;2598;52.364;9.772;2023-10-08T00:43:53;3.10;;;0.60;;
5157;SDS011;2598;52.364;9.772;2023-10-08T00:46:21;2.77;;;0.50;;
5157;SDS011;2598;52.364;9.772;2023-10-08T00:48:53;2.70;;;0.50;;
5157;SDS011;2598;52.364;9.772;2023-10-08T00:51:23;2.90;;;0.60;;
5157;SDS011;2598;52.364;9.772;2023-10-08T00:53:59;2.80;;;0.50;;
5157;SDS011;2598;52.364;9.772;2023-10-08T00:56:30;3.00;;;0.67;;
5157;SDS011;2598;52.364;9.772;2023-10-08T00:59:29;3.00;;;0.70;;
5157;SDS011;2598;52.364;9.772;2023-10-08T01:02:02;3.10;;;0.50;;
5157;SDS011;2598;52.364;9.772;2023-10-08T01:04:33;3.30;;;0.70;;
5157;SDS011;2598;52.364;9.772;2023-10-08T01:07:01;2.80;;;0.50;;
5157;SDS011;2598;52.364;9.772;2023-10-08T01:09:37;2.73;;;0.50;;
5157;SDS011;2598;52.364;9.772;2023-10-08T01:12:11;2.80;;;0.60;;
5157;SDS011;2598;52.364;9.772;2023-10-08T01:14:40;3.00;;;0.70;;
5157;SDS011;2598;52.364;9.772;2023-10-08T01:17:11;2.80;;;0.50;;
5157;SDS011;2598;52.364;9.772;2023-10-08T01:19:44;3.00;;;0.60;;
5157;SDS011;2598;52.364;9.772;2023-10-08T01:22:15;6.57;;;0.90;;
5157;SDS011;2598;52.364;9.772;2023-10-08T01:24:43;3.30;;;0.70;;
5157;SDS011;2598;52.364;9.772;2023-10-08T01:27:09;3.70;;;1.00;;
5157;SDS011;2598;52.364;9.772;2023-10-08T01:29:36;5.37;;;0.80;;
5157;SDS011;2598;52.364;9.772;2023-10-08T01:32:02;4.93;;;1.10;;
5157;SDS011;2598;52.364;9.772;2023-10-08T01:34:34;6.10;;;1.10;;
5157;SDS011;2598;52.364;9.772;2023-10-08T01:37:01;4.20;;;1.00;;
5157;SDS011;2598;52.364;9.772;2023-10-08T01:39:35;4.50;;;0.70;;
5157;SDS011;2598;52.364;9.772;2023-10-08T01:42:01;4.73;;;1.30;;
5157;SDS011;2598;52.364;9.772;2023-10-08T01:44:28;3.40;;;0.90;;
5157;SDS011;2598;52.364;9.772;2023-10-08T01:46:54;4.10;;;0.83;;
5157;SDS011;2598;52.364;9.772;2023-10-08T01:49:23;6.63;;;1.30;;
5157;SDS011;2598;52.364;9.772;2023-10-08T01:51:57;4.43;;;1.13;;
5157;SDS011;2598;52.364;9.772;2023-10-08T01:54:23;6.67;;;1.40;;
5157;SDS011;2598;52.364;9.772;2023-10-08T01:56:51;4.90;;;1.40;;
5157;SDS011;2598;52.364;9.772;2023-10-08T01:59:17;4.20;;;1.43;;
5157;SDS011;2598;52.364;9.772;2023-10-08T02:01:43;5.30;;;1.40;;
5157;SDS011;2598;52.364;9.772;2023-10-08T02:04:10;4.60;;;1.50;;
5157;SDS011;2598;52.364;9.772;2023-10-08T02:06:37;6.00;;;1.30;;
5157;SDS011;2598;52.364;9.772;2023-10-08T02:09:07;4.27;;;1.13;;
5157;SDS011;2598;52.364;9.772;2023-10-08T02:11:41;4.63;;;0.83;;
5157;SDS011;2598;52.364;9.772;2023-10-08T02:14:08;4.87;;;0.93;;
5157;SDS011;2598;52.364;9.772;2023-10-08T02:16:34;11.33;;;1.03;;
5157;SDS011;2598;52.364;9.772;2023-10-08T02:19:00;5.47;;;1.00;;
5157;SDS011;2598;52.364;9.772;2023-10-08T02:21:26;3.50;;;1.07;;
5157;SDS011;2598;52.364;9.772;2023-10-08T02:23:52;3.40;;;0.97;;
5157;SDS011;2598;52.364;9.772;2023-10-08T02:26:18;7.03;;;1.23;;
5157;SDS011;2598;52.364;9.772;2023-10-08T02:28:44;5.97;;;1.13;;
5157;SDS011;2598;52.364;9.772;2023-10-08T02:31:10;7.30;;;1.40;;
5157;SDS011;2598;52.364;9.772;2023-10-08T02:33:36;4.60;;;1.27;;
5157;SDS011;2598;52.364;9.772;2023-10-08T02:36:03;4.00;;;1.00;;
5157;SDS011;2598;52.364;9.772;2023-10-08T02:38:29;6.63;;;1.30;;
5157;SDS011;2598;52.364;9.772;2023-10-08T02:41:02;4.70;;;1.20;;
5157;SDS011;2598;52.364;9.772;2023-10-08T02:43:31;5.50;;;1.13;;
5157;SDS011;2598;52.364;9.772;2023-10-08T02:45:59;4.83;;;1.00;;
5157;SDS011;2598;52.364;9.772;2023-10-08T02:48:25;4.47;;;0.90;;
5157;SDS011;2598;52.364;9.772;2023-10-08T02:50:52;10.37;;;1.33;;
5157;SDS011;2598;52.364;9.772;2023-10-08T02:53:19;3.87;;;0.80;;
5157;SDS011;2598;52.364;9.772;2023-10-08T02:55:48;4.83;;;1.40;;
5157;SDS011;2598;52.364;9.772;2023-10-08T02:58:15;8.77;;;2.03;;
5157;SDS011;2598;52.364;9.772;2023-10-08T03:00:41;6.00;;;1.67;;
5157;SDS011;2598;52.364;9.772;2023-10-08T03:03:07;5.00;;;1.00;;
5157;SDS011;2598;52.364;9.772;2023-10-08T03:05:47;4.03;;;0.83;;
5157;SDS011;2598;52.364;9.772;2023-10-08T03:08:16;7.07;;;1.00;;
5157;SDS011;2598;52.364;9.772;2023-10-08T03:10:46;5.10;;;1.50;;
5157;SDS011;2598;52.364;9.772;2023-10-08T03:13:20;4.53;;;1.30;;
5157;SDS011;2598;52.364;9.772;2023-10-08T03:15:46;5.20;;;1.50;;
5157;SDS011;2598;52.364;9.772;2023-10-08T03:18:32;7.40;;;1.93;;
5157;SDS011;2598;52.364;9.772;2023-10-08T03:21:02;6.90;;;1.53;;
5157;SDS011;2598;52.364;9.772;2023-10-08T03:23:44;7.40;;;2.33;;
5157;SDS011;2598;52.364;9.772;2023-10-08T03:26:12;6.77;;;2.40;;
5157;SDS011;2598;52.364;9.772;2023-10-08T03:28:57;10.63;;;1.77;;
5157;SDS011;2598;52.364;9.772;2023-10-08T03:31:23;5.53;;;1.40;;
5157;SDS011;2598;52.364;9.772;2023-10-08T03:34:08;5.23;;;1.10;;
5157;SDS011;2598;52.364;9.772;2023-10-08T03:36:38;5.47;;;1.00;;
5157;SDS011;2598;52.364;9.772;2023-10-08T03:39:09;4.00;;;0.97;;
5157;SDS011;2598;52.364;9.772;2023-10-08T03:41:38;4.73;;;1.13;;
5157;SDS011;2598;52.364;9.772;2023-10-08T03:44:07;5.33;;;1.37;;
5157;SDS011;2598;52.364;9.772;2023-10-08T03:46:41;6.60;;;1.47;;
5157;SDS011;2598;52.364;9.772;2023-10-08T03:49:08;6.87;;;1.70;;
5157;SDS011;2598;52.364;9.772;2023-10-08T03:51:50;8.03;;;2.10;;
5157;SDS011;2598;52.364;9.772;2023-10-08T03:54:17;7.10;;;2.10;;
5157;SDS011;2598;52.364;9.772;2023-10-08T03:56:44;5.30;;;1.50;;
5157;SDS011;2598;52.364;9.772;2023-10-08T03:59:14;4.93;;;1.53;;
5157;SDS011;2598;52.364;9.772;2023-10-08T04:01:56;4.30;;;1.17;;
5157;SDS011;2598;52.364;9.772;2023-10-08T04:04:24;3.47;;;1.10;;
5157;SDS011;2598;52.364;9.772;2023-10-08T04:07:14;4.87;;;0.87;;
5157;SDS011;2598;52.364;9.772;2023-10-08T04:09:49;5.10;;;0.90;;
5157;SDS011;2598;52.364;9.772;2023-10-08T04:12:24;4.30;;;1.27;;
5157;SDS011;2598;52.364;9.772;2023-10-08T04:14:52;7.43;;;1.13;;
5157;SDS011;2598;52.364;9.772;2023-10-08T04:17:20;4.70;;;1.03;;
5157;SDS011;2598;52.364;9.772;2023-10-08T04:19:47;4.50;;;0.80;;
5157;SDS011;2598;52.364;9.772;2023-10-08T04:22:13;3.90;;;0.87;;
5157;SDS011;2598;52.364;9.772;2023-10-08T04:24:40;6.17;;;1.30;;
5157;SDS011;2598;52.364;9.772;2023-10-08T04:27:08;5.17;;;1.30;;
5157;SDS011;2598;52.364;9.772;2023-10-08T04:29:35;5.13;;;0.90;;
5157;SDS011;2598;52.364;9.772;2023-10-08T04:32:04;4.37;;;1.00;;
5157;SDS011;2598;52.364;9.772;2023-10-08T04:34:36;4.27;;;1.03;;
5157;SDS011;2598;52.364;9.772;2023-10-08T04:37:03;4.93;;;1.10;;
5157;SDS011;2598;52.364;9.772;2023-10-08T04:39:37;4.20;;;1.10;;
5157;SDS011;2598;52.364;9.772;2023-10-08T04:42:05;3.10;;;0.70;;
5157;SDS011;2598;52.364;9.772;2023-10-08T04:44:35;4.50;;;0.80;;
5157;SDS011;2598;52.364;9.772;2023-10-08T04:47:04;4.30;;;0.87;;
5157;SDS011;2598;52.364;9.772;2023-10-08T04:49:31;4.07;;;0.77;;
5157;SDS011;2598;52.364;9.772;2023-10-08T04:52:00;4.27;;;1.00;;
5157;SDS011;2598;52.364;9.772;2023-10-08T04:54:30;5.70;;;0.97;;
5157;SDS011;2598;52.364;9.772;2023-10-08T04:56:59;4.53;;;1.00;;
5157;SDS011;2598;52.364;9.772;2023-10-08T04:59:26;4.97;;;0.97;;
5157;SDS011;2598;52.364;9.772;2023-10-08T05:01:59;6.80;;;1.00;;
5157;SDS011;2598;52.364;9.772;2023-10-08T05:04:44;3.40;;;0.90;;
5157;SDS011;2598;52.364;9.772;2023-10-08T05:07:24;3.37;;;0.93;;
5157;SDS011;2598;52.364;9.772;2023-10-08T05:10:16;3.90;;;0.90;;
5157;SDS011;2598;52.364;9.772;2023-10-08T05:12:48;5.60;;;1.30;;
5157;SDS011;2598;52.364;9.772;2023-10-08T05:15:30;4.80;;;1.00;;
5157;SDS011;2598;52.364;9.772;2023-10-08T05:18:06;4.27;;;0.93;;
5157;SDS011;2598;52.364;9.772;2023-10-08T05:20:47;3.83;;;0.90;;
5157;SDS011;2598;52.364;9.772;2023-10-08T05:23:14;3.57;;;0.80;;
5157;SDS011;2598;52.364;9.772;2023-10-08T05:25:47;3.70;;;0.90;;
5157;SDS011;2598;52.364;9.772;2023-10-08T05:28:31;6.70;;;1.30;;
5157;SDS011;2598;52.364;9.772;2023-10-08T05:31:10;5.77;;;1.13;;
5157;SDS011;2598;52.364;9.772;2023-10-08T05:33:56;4.80;;;1.17;;
5157;SDS011;2598;52.364;9.772;2023-10-08T05:36:28;6.07;;;1.33;;
5157;SDS011;2598;52.364;9.772;2023-10-08T05:39:15;5.13;;;1.10;;
5157;SDS011;2598;52.364;9.772;2023-10-08T05:41:55;5.00;;;1.30;;
5157;SDS011;2598;52.364;9.772;2023-10-08T05:44:41;4.60;;;1.10;;
5157;SDS011;2598;52.364;9.772;2023-10-08T05:47:26;5.53;;;0.93;;
5157;SDS011;2598;52.364;9.772;2023-10-08T05:49:58;5.60;;;1.10;;
5157;SDS011;2598;52.364;9.772;2023-10-08T05:52:43;3.80;;;1.10;;
5157;SDS011;2598;52.364;9.772;2023-10-08T05:55:36;4.70;;;1.00;;
5157;SDS011;2598;52.364;9.772;2023-10-08T05:58:12;5.07;;;1.43;;
5157;SDS011;2598;52.364;9.772;2023-10-08T06:01:00;4.10;;;0.93;;
5157;SDS011;2598;52.364;9.772;2023-10-08T06:03:32;7.10;;;1.03;;
5157;SDS011;2598;52.364;9.772;2023-10-08T06:06:04;5.80;;;1.23;;
5157;SDS011;2598;52.364;9.772;2023-10-08T06:08:39;6.87;;;1.37;;
5157;SDS011;2598;52.364;9.772;2023-10-08T06:11:24;4.17;;;1.10;;
5157;SDS011;2598;52.364;9.772;2023-10-08T06:14:08;7.60;;;1.23;;
5157;SDS011;2598;52.364;9.772;2023-10-08T06:17:01;5.43;;;1.57;;
5157;SDS011;2598;52.364;9.772;2023-10-08T06:19:41;5.73;;;1.23;;
5157;SDS011;2598;52.364;9.772;2023-10-08T06:22:08;3.37;;;0.90;;
5157;SDS011;2598;52.364;9.772;2023-10-08T06:24:34;5.17;;;1.40;;
5157;SDS011;2598;52.364;9.772;2023-10-08T06:27:03;5.80;;;1.20;;
5157;SDS011;2598;52.364;9.772;2023-10-08T06:29:32;5.20;;;1.27;;
5157;SDS011;2598;52.364;9.772;2023-10-08T06:31:59;5.77;;;1.70;;
5157;SDS011;2598;52.364;9.772;2023-10-08T06:34:28;5.20;;;1.10;;
5157;SDS011;2598;52.364;9.772;2023-10-08T06:36:56;6.70;;;1.67;;
5157;SDS011;2598;52.364;9.772;2023-10-08T06:39:23;6.37;;;1.30;;
5157;SDS011;2598;52.364;9.772;2023-10-08T06:41:58;4.93;;;1.07;;
5157;SDS011;2598;52.364;9.772;2023-10-08T06:44:24;4.23;;;1.30;;
5157;SDS011;2598;52.364;9.772;2023-10-08T06:46:52;5.20;;;1.20;;
5157;SDS011;2598;52.364;9.772;2023-10-08T06:49:19;5.33;;;1.40;;
5157;SDS011;2598;52.364;9.772;2023-10-08T06:51:48;7.20;;;1.40;;
5157;SDS011;2598;52.364;9.772;2023-10-08T06:54:15;4.33;;;1.17;;
5157;SDS011;2598;52.364;9.772;2023-10-08T06:56:42;5.43;;;1.47;;
5157;SDS011;2598;52.364;9.772;2023-10-08T06:59:11;8.80;;;1.33;;
5157;SDS011;2598;52.364;9.772;2023-10-08T07:01:37;4.07;;;1.10;;
5157;SDS011;2598;52.364;9.772;2023-10-08T07:04:07;5.40;;;1.13;;
5157;SDS011;2598;52.364;9.772;2023-10-08T07:06:37;6.73;;;1.93;;
5157;SDS011;2598;52.364;9.772;2023-10-08T07:09:04;7.03;;;1.40;;
5157;SDS011;2598;52.364;9.772;2023-10-08T07:11:31;5.07;;;1.40;;
5157;SDS011;2598;52.364;9.772;2023-10-08T07:14:02;6.20;;;2.57;;
5157;SDS011;2598;52.364;9.772;2023-10-08T07:16:29;6.27;;;2.03;;
5157;SDS011;2598;52.364;9.772;2023-10-08T07:18:55;7.47;;;2.20;;
5157;SDS011;2598;52.364;9.772;2023-10-08T07:21:27;6.83;;;1.67;;
5157;SDS011;2598;52.364;9.772;2023-10-08T07:23:54;8.57;;;1.90;;
5157;SDS011;2598;52.364;9.772;2023-10-08T07:26:28;6.83;;;1.70;;
5157;SDS011;2598;52.364;9.772;2023-10-08T07:29:05;7.13;;;1.87;;
5157;SDS011;2598;52.364;9.772;2023-10-08T07:31:33;8.17;;;2.00;;
5157;SDS011;2598;52.364;9.772;2023-10-08T07:34:01;5.80;;;1.80;;
5157;SDS011;2598;52.364;9.772;2023-10-08T07:36:43;5.00;;;1.80;;
5157;SDS011;2598;52.364;9.772;2023-10-08T07:39:10;7.77;;;1.90;;
5157;SDS011;2598;52.364;9.772;2023-10-08T07:41:51;5.50;;;1.70;;
5157;SDS011;2598;52.364;9.772;2023-10-08T07:44:18;8.97;;;2.30;;
5157;SDS011;2598;52.364;9.772;2023-10-08T07:46:47;5.00;;;1.70;;
5157;SDS011;2598;52.364;9.772;2023-10-08T07:49:14;4.90;;;1.80;;
5157;SDS011;2598;52.364;9.772;2023-10-08T07:51:40;6.13;;;2.10;;
5157;SDS011;2598;52.364;9.772;2023-10-08T07:54:06;5.77;;;2.20;;
5157;SDS011;2598;52.364;9.772;2023-10-08T07:56:41;9.03;;;2.50;;
5157;SDS011;2598;52.364;9.772;2023-10-08T07:59:07;6.63;;;2.60;;
5157;SDS011;2598;52.364;9.772;2023-10-08T08:01:34;8.90;;;2.20;;
5157;SDS011;2598;52.364;9.772;2023-10-08T08:04:00;6.67;;;1.93;;
5157;SDS011;2598;52.364;9.772;2023-10-08T08:06:26;4.63;;;1.73;;
5157;SDS011;2598;52.364;9.772;2023-10-08T08:08:52;7.20;;;2.00;;
5157;SDS011;2598;52.364;9.772;2023-10-08T08:11:18;7.90;;;1.77;;
5157;SDS011;2598;52.364;9.772;2023-10-08T08:13:44;11.00;;;2.30;;
5157;SDS011;2598;52.364;9.772;2023-10-08T08:16:10;7.80;;;2.10;;
5157;SDS011;2598;52.364;9.772;2023-10-08T08:18:47;4.17;;;1.47;;
5157;SDS011;2598;52.364;9.772;2023-10-08T08:21:24;9.37;;;2.20;;
5157;SDS011;2598;52.364;9.772;2023-10-08T08:23:50;6.03;;;2.17;;
5157;SDS011;2598;52.364;9.772;2023-10-08T08:26:21;5.33;;;1.73;;
5157;SDS011;2598;52.364;9.772;2023-10-08T08:28:58;5.63;;;1.47;;
5157;SDS011;2598;52.364;9.772;2023-10-08T08:31:26;8.67;;;2.27;;
5157;SDS011;2598;52.364;9.772;2023-10-08T08:33:52;7.43;;;1.73;;
5157;SDS011;2598;52.364;9.772;2023-10-08T08:36:21;4.50;;;1.80;;
5157;SDS011;2598;52.364;9.772;2023-10-08T08:38:48;5.90;;;1.67;;
5157;SDS011;2598;52.364;9.772;2023-10-08T08:41:14;5.73;;;1.33;;
5157;SDS011;2598;52.364;9.772;2023-10-08T08:43:44;8.53;;;1.90;;
5157;SDS011;2598;52.364;9.772;2023-10-08T08:46:11;5.30;;;1.70;;
5157;SDS011;2598;52.364;9.772;2023-10-08T08:48:40;6.10;;;1.27;;
5157;SDS011;2598;52.364;9.772;2023-10-08T08:51:06;7.60;;;1.70;;
5157;SDS011;2598;52.364;9.772;2023-10-08T08:53:34;4.80;;;1.70;;
5157;SDS011;2598;52.364;9.772;2023-10-08T08:56:00;7.20;;;1.80;;
5157;SDS011;2598;52.364;9.772;2023-10-08T08:58:30;6.47;;;2.03;;
5157;SDS011;2598;52.364;9.772;2023-10-08T09:00:56;11.40;;;2.23;;
5157;SDS011;2598;52.364;9.772;2023-10-08T09:03:23;6.10;;;1.90;;
5157;SDS011;2598;52.364;9.772;2023-10-08T09:05:55;4.43;;;1.63;;
5157;SDS011;2598;52.364;9.772;2023-10-08T09:08:21;5.47;;;2.00;;
5157;SDS011;2598;52.364;9.772;2023-10-08T09:10:49;4.80;;;1.77;;
5157;SDS011;2598;52.364;9.772;2023-10-08T09:13:19;5.93;;;1.73;;
5157;SDS011;2598;52.364;9.772;2023-10-08T09:15:49;8.57;;;2.03;;
5157;SDS011;2598;52.364;9.772;2023-10-08T09:18:15;7.23;;;2.10;;
5157;SDS011;2598;52.364;9.772;2023-10-08T09:20:41;5.57;;;1.73;;
5157;SDS011;2598;52.364;9.772;2023-10-08T09:23:09;11.90;;;2.30;;
5157;SDS011;2598;52.364;9.772;2023-10-08T09:25:39;4.93;;;1.50;;
5157;SDS011;2598;52.364;9.772;2023-10-08T09:28:05;7.13;;;1.70;;
5157;SDS011;2598;52.364;9.772;2023-10-08T09:30:33;5.57;;;1.40;;
5157;SDS011;2598;52.364;9.772;2023-10-08T09:33:03;6.10;;;1.30;;
5157;SDS011;2598;52.364;9.772;2023-10-08T09:35:29;5.47;;;1.30;;
5157;SDS011;2598;52.364;9.772;2023-10-08T09:37:57;8.50;;;1.40;;
5157;SDS011;2598;52.364;9.772;2023-10-08T09:40:23;5.33;;;1.87;;
5157;SDS011;2598;52.364;9.772;2023-10-08T09:42:50;6.03;;;1.70;;
5157;SDS011;2598;52.364;9.772;2023-10-08T09:45:17;6.63;;;1.80;;
5157;SDS011;2598;52.364;9.772;2023-10-08T09:47:46;4.43;;;1.17;;
5157;SDS011;2598;52.364;9.772;2023-10-08T09:50:12;4.10;;;1.23;;
5157;SDS011;2598;52.364;9.772;2023-10-08T09:55:26;4.93;;;1.60;;
5157;SDS011;2598;52.364;9.772;2023-10-08T09:57:52;6.30;;;1.73;;
5157;SDS011;2598;52.364;9.772;2023-10-08T10:00:20;6.07;;;1.30;;
5157;SDS011;2598;52.364;9.772;2023-10-08T10:02:55;5.47;;;1.30;;
5157;SDS011;2598;52.364;9.772;2023-10-08T10:05:22;9.03;;;1.10;;
5157;SDS011;2598;52.364;9.772;2023-10-08T10:07:49;5.33;;;1.20;;
5157;SDS011;2598;52.364;9.772;2023-10-08T10:10:31;10.50;;;1.77;;
5157;SDS011;2598;52.364;9.772;2023-10-08T10:12:58;5.83;;;1.33;;
5157;SDS011;2598;52.364;9.772;2023-10-08T10:15:24;5.97;;;1.57;;
5157;SDS011;2598;52.364;9.772;2023-10-08T10:17:51;5.47;;;1.47;;
5157;SDS011;2598;52.364;9.772;2023-10-08T10:20:17;11.63;;;1.40;;
5157;SDS011;2598;52.364;9.772;2023-10-08T10:22:43;3.77;;;0.97;;
5157;SDS011;2598;52.364;9.772;2023-10-08T10:25:10;5.73;;;1.83;;
5157;SDS011;2598;52.364;9.772;2023-10-08T10:30:21;6.60;;;1.37;;
5157;SDS011;2598;52.364;9.772;2023-10-08T10:32:51;6.50;;;1.63;;
5157;SDS011;2598;52.364;9.772;2023-10-08T10:35:17;3.83;;;1.30;;
5157;SDS011;2598;52.364;9.772;2023-10-08T10:37:45;5.40;;;1.17;;
5157;SDS011;2598;52.364;9.772;2023-10-08T10:40:19;8.37;;;1.17;;
5157;SDS011;2598;52.364;9.772;2023-10-08T10:42:55;6.90;;;1.30;;
5157;SDS011;2598;52.364;9.772;2023-10-08T10:45:21;4.70;;;0.90;;
5157;SDS011;2598;52.364;9.772;2023-10-08T10:48:06;5.63;;;1.13;;
5157;SDS011;2598;52.364;9.772;2023-10-08T10:50:46;6.30;;;1.33;;
5157;SDS011;2598;52.364;9.772;2023-10-08T10:53:34;5.93;;;1.40;;
5157;SDS011;2598;52.364;9.772;2023-10-08T10:56:11;5.67;;;1.40;;
5157;SDS011;2598;52.364;9.772;2023-10-08T10:58:43;4.90;;;1.30;;
5157;SDS011;2598;52.364;9.772;2023-10-08T11:01:09;6.47;;;1.20;;
5157;SDS011;2598;52.364;9.772;2023-10-08T11:03:51;6.17;;;1.37;;
5157;SDS011;2598;52.364;9.772;2023-10-08T11:06:17;8.93;;;1.17;;
5157;SDS011;2598;52.364;9.772;2023-10-08T11:08:48;5.40;;;1.00;;
5157;SDS011;2598;52.364;9.772;2023-10-08T11:11:16;8.07;;;1.33;;
5157;SDS011;2598;52.364;9.772;2023-10-08T11:13:42;7.80;;;1.50;;
5157;SDS011;2598;52.364;9.772;2023-10-08T11:16:12;8.70;;;1.40;;
5157;SDS011;2598;52.364;9.772;2023-10-08T11:18:43;7.60;;;1.93;;
5157;SDS011;2598;52.364;9.772;2023-10-08T11:21:10;5.40;;;1.20;;
5157;SDS011;2598;52.364;9.772;2023-10-08T11:23:47;12.57;;;1.50;;
5157;SDS011;2598;52.364;9.772;2023-10-08T11:26:18;5.60;;;1.30;;
5157;SDS011;2598;52.364;9.772;2023-10-08T11:28:44;3.33;;;1.00;;
5157;SDS011;2598;52.364;9.772;2023-10-08T11:31:12;5.53;;;1.10;;
5157;SDS011;2598;52.364;9.772;2023-10-08T11:33:42;6.73;;;1.13;;
5157;SDS011;2598;52.364;9.772;2023-10-08T11:36:19;9.07;;;1.50;;
5157;SDS011;2598;52.364;9.772;2023-10-08T11:38:45;6.10;;;1.23;;
5157;SDS011;2598;52.364;9.772;2023-10-08T11:41:16;7.33;;;1.47;;
5157;SDS011;2598;52.364;9.772;2023-10-08T11:43:52;5.60;;;1.40;;
5157;SDS011;2598;52.364;9.772;2023-10-08T11:46:25;7.70;;;1.20;;
5157;SDS011;2598;52.364;9.772;2023-10-08T11:48:52;4.97;;;1.10;;
5157;SDS011;2598;52.364;9.772;2023-10-08T11:51:22;5.20;;;1.20;;
5157;SDS011;2598;52.364;9.772;2023-10-08T11:53:49;6.97;;;1.37;;
5157;SDS011;2598;52.364;9.772;2023-10-08T11:56:15;5.83;;;1.30;;
5157;SDS011;2598;52.364;9.772;2023-10-08T11:58:41;4.83;;;1.33;;
5157;SDS011;2598;52.364;9.772;2023-10-08T12:01:10;6.63;;;1.47;;
5157;SDS011;2598;52.364;9.772;2023-10-08T12:03:40;5.43;;;1.40;;
5157;SDS011;2598;52.364;9.772;2023-10-08T12:06:06;10.37;;;1.67;;
5157;SDS011;2598;52.364;9.772;2023-10-08T12:08:33;7.30;;;1.50;;
5157;SDS011;2598;52.364;9.772;2023-10-08T12:11:04;6.00;;;1.60;;
5157;SDS011;2598;52.364;9.772;2023-10-08T12:13:36;9.53;;;1.50;;
5157;SDS011;2598;52.364;9.772;2023-10-08T12:16:02;8.60;;;1.70;;
5157;SDS011;2598;52.364;9.772;2023-10-08T12:18:32;4.23;;;1.23;;
5157;SDS011;2598;52.364;9.772;2023-10-08T12:21:04;13.50;;;1.90;;
5157;SDS011;2598;52.364;9.772;2023-10-08T12:23:35;13.30;;;1.63;;
5157;SDS011;2598;52.364;9.772;2023-10-08T12:26:02;7.07;;;1.27;;
5157;SDS011;2598;52.364;9.772;2023-10-08T12:28:32;7.23;;;1.53;;
5157;SDS011;2598;52.364;9.772;2023-10-08T12:30:59;5.90;;;1.50;;
5157;SDS011;2598;52.364;9.772;2023-10-08T12:33:25;5.27;;;1.50;;
5157;SDS011;2598;52.364;9.772;2023-10-08T12:35:53;5.67;;;1.70;;
5157;SDS011;2598;52.364;9.772;2023-10-08T12:38:21;5.37;;;1.30;;
5157;SDS011;2598;52.364;9.772;2023-10-08T12:40:47;5.50;;;1.10;;
5157;SDS011;2598;52.364;9.772;2023-10-08T12:43:17;6.43;;;1.60;;
5157;SDS011;2598;52.364;9.772;2023-10-08T12:45:47;4.83;;;1.20;;
5157;SDS011;2598;52.364;9.772;2023-10-08T12:48:17;6.07;;;1.40;;
5157;SDS011;2598;52.364;9.772;2023-10-08T12:50:43;7.37;;;1.70;;
5157;SDS011;2598;52.364;9.772;2023-10-08T12:53:09;6.23;;;1.27;;
5157;SDS011;2598;52.364;9.772;2023-10-08T12:55:36;4.33;;;1.37;;
5157;SDS011;2598;52.364;9.772;2023-10-08T12:58:04;4.47;;;1.40;;
5157;SDS011;2598;52.364;9.772;2023-10-08T13:00:39;6.20;;;1.80;;
5157;SDS011;2598;52.364;9.772;2023-10-08T13:03:08;6.23;;;1.60;;
5157;SDS011;2598;52.364;9.772;2023-10-08T13:05:43;3.33;;;1.00;;
5157;SDS011;2598;52.364;9.772;2023-10-08T13:08:10;6.67;;;1.77;;
5157;SDS011;2598;52.364;9.772;2023-10-08T13:10:38;6.13;;;1.50;;
5157;SDS011;2598;52.364;9.772;2023-10-08T13:13:08;8.33;;;2.00;;
5157;SDS011;2598;52.364;9.772;2023-10-08T13:15:35;5.13;;;1.50;;
5157;SDS011;2598;52.364;9.772;2023-10-08T13:18:02;5.60;;;1.40;;
5157;SDS011;2598;52.364;9.772;2023-10-08T13:20:30;4.30;;;1.50;;
5157;SDS011;2598;52.364;9.772;2023-10-08T13:22:59;10.10;;;1.63;;
5157;SDS011;2598;52.364;9.772;2023-10-08T13:25:25;6.13;;;1.57;;
5157;SDS011;2598;52.364;9.772;2023-10-08T13:27:51;4.90;;;1.70;;
5157;SDS011;2598;52.364;9.772;2023-10-08T13:30:17;7.33;;;1.50;;
5157;SDS011;2598;52.364;9.772;2023-10-08T13:32:45;5.23;;;1.17;;
5157;SDS011;2598;52.364;9.772;2023-10-08T13:35:11;4.27;;;1.10;;
5157;SDS011;2598;52.364;9.772;2023-10-08T13:37:37;4.90;;;1.43;;
5157;SDS011;2598;52.364;9.772;2023-10-08T13:40:04;5.20;;;1.30;;
5157;SDS011;2598;52.364;9.772;2023-10-08T13:42:31;6.10;;;1.50;;
5157;SDS011;2598;52.364;9.772;2023-10-08T13:44:57;6.43;;;1.40;;
5157;SDS011;2598;52.364;9.772;2023-10-08T13:47:24;5.50;;;1.43;;
5157;SDS011;2598;52.364;9.772;2023-10-08T13:49:54;3.50;;;1.13;;
5157;SDS011;2598;52.364;9.772;2023-10-08T13:52:22;7.77;;;1.50;;
5157;SDS011;2598;52.364;9.772;2023-10-08T13:54:52;6.50;;;1.70;;
5157;SDS011;2598;52.364;9.772;2023-10-08T13:57:21;7.67;;;1.30;;
5157;SDS011;2598;52.364;9.772;2023-10-08T13:59:50;4.13;;;1.10;;
5157;SDS011;2598;52.364;9.772;2023-10-08T14:02:16;5.50;;;1.20;;
5157;SDS011;2598;52.364;9.772;2023-10-08T14:04:46;5.97;;;1.80;;
5157;SDS011;2598;52.364;9.772;2023-10-08T14:07:15;5.10;;;1.43;;
5157;SDS011;2598;52.364;9.772;2023-10-08T14:09:42;9.50;;;1.50;;
5157;SDS011;2598;52.364;9.772;2023-10-08T14:12:10;6.40;;;1.27;;
5157;SDS011;2598;52.364;9.772;2023-10-08T14:14:36;5.57;;;1.30;;
5157;SDS011;2598;52.364;9.772;2023-10-08T14:17:08;5.70;;;1.40;;
5157;SDS011;2598;52.364;9.772;2023-10-08T14:19:39;5.10;;;1.50;;
5157;SDS011;2598;52.364;9.772;2023-10-08T14:22:11;7.80;;;1.20;;
5157;SDS011;2598;52.364;9.772;2023-10-08T14:24:39;5.37;;;1.10;;
5157;SDS011;2598;52.364;9.772;2023-10-08T14:27:05;8.17;;;1.80;;
5157;SDS011;2598;52.364;9.772;2023-10-08T14:29:40;6.10;;;1.63;;
5157;SDS011;2598;52.364;9.772;2023-10-08T14:32:09;7.10;;;1.47;;
5157;SDS011;2598;52.364;9.772;2023-10-08T14:34:36;5.50;;;1.70;;
5157;SDS011;2598;52.364;9.772;2023-10-08T14:37:20;6.63;;;1.60;;
5157;SDS011;2598;52.364;9.772;2023-10-08T14:40:05;5.57;;;1.30;;
5157;SDS011;2598;52.364;9.772;2023-10-08T14:42:50;5.80;;;1.60;;
5157;SDS011;2598;52.364;9.772;2023-10-08T14:45:29;7.37;;;1.20;;
5157;SDS011;2598;52.364;9.772;2023-10-08T14:48:01;7.40;;;1.80;;
5157;SDS011;2598;52.364;9.772;2023-10-08T14:50:30;5.00;;;1.50;;
5157;SDS011;2598;52.364;9.772;2023-10-08T14:52:57;4.73;;;1.77;;
5157;SDS011;2598;52.364;9.772;2023-10-08T14:55:29;6.23;;;1.40;;
5157;SDS011;2598;52.364;9.772;2023-10-08T14:57:56;4.50;;;1.20;;
5157;SDS011;2598;52.364;9.772;2023-10-08T15:00:22;5.93;;;1.83;;
5157;SDS011;2598;52.364;9.772;2023-10-08T15:02:52;9.13;;;1.70;;
5157;SDS011;2598;52.364;9.772;2023-10-08T15:05:21;4.87;;;1.77;;
5157;SDS011;2598;52.364;9.772;2023-10-08T15:07:51;7.97;;;1.70;;
5157;SDS011;2598;52.364;9.772;2023-10-08T15:10:17;4.57;;;1.50;;
5157;SDS011;2598;52.364;9.772;2023-10-08T15:12:43;4.33;;;1.30;;
5157;SDS011;2598;52.364;9.772;2023-10-08T15:15:09;4.57;;;1.10;;
5157;SDS011;2598;52.364;9.772;2023-10-08T15:17:41;6.07;;;1.47;;
5157;SDS011;2598;52.364;9.772;2023-10-08T15:20:08;7.20;;;1.77;;
5157;SDS011;2598;52.364;9.772;2023-10-08T15:22:39;6.63;;;1.30;;
5157;SDS011;2598;52.364;9.772;2023-10-08T15:25:07;5.80;;;2.00;;
5157;SDS011;2598;52.364;9.772;2023-10-08T15:27:35;5.07;;;1.60;;
5157;SDS011;2598;52.364;9.772;2023-10-08T15:30:03;6.90;;;1.70;;
5157;SDS011;2598;52.364;9.772;2023-10-08T15:32:29;8.53;;;1.80;;
5157;SDS011;2598;52.364;9.772;2023-10-08T15:34:56;4.93;;;1.10;;
5157;SDS011;2598;52.364;9.772;2023-10-08T15:37:22;5.70;;;1.60;;
5157;SDS011;2598;52.364;9.772;2023-10-08T15:39:48;4.87;;;1.30;;